EDT,Max TemperatureF,Mean TemperatureF,Min TemperatureF,Max Dew PointF,MeanDew PointF,Min DewpointF,Max Humidity, Mean Humidity, Min Humidity, Max Sea Level PressureIn, Mean Sea Level PressureIn, Min Sea Level PressureIn, Max VisibilityMiles, Mean VisibilityMiles, Min VisibilityMiles, Max Wind SpeedMPH, Mean Wind SpeedMPH, Max Gust SpeedMPH,PrecipitationIn, CloudCover, Events, WindDirDegrees
2013-3-1,27,23,19,17,14,11,74,68,62,30.23,30.18,30.08,10,9,5,17,11,24,T,6,Snow,19
2013-3-2,26,21,15,16,13,9,77,70,62,30.19,30.16,30.12,10,9,3,14,9,20,T,6,Snow,19
2013-3-3,26,18,10,16,12,7,80,70,60,30.12,30.09,30.04,10,10,9,14,6,18,T,5,Snow,343
2013-3-4,28,21,14,18,14,9,80,65,50,30.17,30.14,30.10,10,10,10,10,4,16,0.00,4,,13
2013-3-5,36,21,6,22,16,2,80,66,51,30.17,30.05,29.96,10,10,10,16,6,21,0.00,5,,44
2013-3-6,38,33,28,30,26,21,92,78,64,30.27,30.17,30.04,10,8,1,14,8,20,0.01,8,Snow,2
2013-3-7,29,26,23,23,19,16,85,72,58,30.45,30.37,30.28,10,9,6,13,7,17,T,7,Snow,358
2013-3-8,42,27,12,25,17,8,88,63,38,30.52,30.45,30.37,10,10,10,12,2,16,0.00,2,,291
2013-3-9,44,33,21,32,23,18,88,63,37,30.35,30.16,29.93,10,9,3,12,4,20,0.22,5,Rain,152
2013-3-10,44,40,36,40,36,32,100,91,82,29.91,29.84,29.71,10,4,0,16,4,22,0.57,8,Fog-Rain,52
2013-3-11,48,40,32,43,38,28,100,91,82,29.71,29.53,29.41,10,5,1,18,5,24,0.46,8,Rain-Snow,246
2013-3-12,32,29,24,28,23,19,85,77,69,29.86,29.77,29.59,10,4,1,15,10,20,0.01,8,Snow,272
2013-3-13,30,26,22,19,16,10,88,67,46,30.22,29.98,29.85,10,6,0,24,11,33,T,7,Fog-Snow,308
2013-3-14,37,28,19,20,16,14,77,61,44,30.25,30.17,30.00,10,10,10,14,5,17,T,5,,262
2013-3-15,34,30,25,31,23,13,89,71,53,29.98,29.91,29.86,10,7,2,13,9,21,0.02,8,Snow,307
2013-3-16,27,22,17,16,14,9,74,65,55,30.05,29.95,29.87,10,6,1,13,7,17,0.04,7,Snow,38
2013-3-17,26,22,17,19,11,5,84,65,46,30.33,30.18,30.01,10,8,2,22,8,28,T,5,Snow,359
2013-3-18,39,28,16,28,21,7,92,65,37,30.19,29.70,29.47,10,6,1,18,7,25,0.06,6,Snow,115
2013-3-19,32,27,21,28,19,16,85,72,58,29.86,29.65,29.46,10,3,0,24,10,32,0.01,8,Snow,248
2013-3-20,26,23,20,19,15,8,84,67,50,29.92,29.88,29.83,10,5,1,20,12,24,T,7,Snow,268
2013-3-21,29,26,22,23,20,16,84,74,63,29.98,29.89,29.83,10,4,1,17,11,22,0.04,8,Snow,322
2013-3-22,32,25,18,24,20,13,81,72,63,30.06,29.99,29.93,10,10,9,14,8,17,T,7,Snow,302
2013-3-23,34,31,28,26,23,20,85,75,64,30.13,30.10,30.06,10,10,10,10,4,14,T,8,Snow,9
2013-3-24,36,33,29,26,22,17,85,66,47,30.09,29.97,29.83,10,10,10,16,9,23,T,7,,29
2013-3-25,37,34,31,27,24,22,75,67,59,30.02,29.88,29.79,10,10,9,18,11,25,T,8,Snow,14
2013-3-26,41,37,32,30,27,22,89,69,48,30.17,30.08,30.00,10,9,2,16,8,21,T,7,Snow,326
2013-3-27,42,35,27,28,25,23,78,64,49,30.24,30.19,30.15,10,10,10,18,9,23,0.00,4,,305
2013-3-28,46,35,23,25,22,19,88,63,37,30.29,30.27,30.24,10,10,10,13,3,15,0.00,1,,272
2013-3-29,45,34,23,25,20,15,88,60,31,30.31,30.27,30.22,10,10,10,9,2,15,0.00,0,,30
2013-3-30,51,37,23,38,20,15,82,53,24,30.22,30.05,29.81,10,10,5,12,4,17,0.06,5,Rain,200
2013-3-31,45,37,29,41,35,17,96,77,58,29.79,29.66,29.58,10,5,1,23,10,35,0.07,8,Rain-Snow,242